Time;durP1;ratioP1;P1;durP2;ratioP2;P2;SDS_P1;SDS_P2;PMS_P1;PMS_P2;Temp;Humidity;BMP_temperature;BMP_pressure;BME280_temperature;BME280_humidity;BME280_pressure;Samples;Min_cycle;Max_cycle;Signal;HPM_P1;HPM_P2
2021/05/07 00:01:17;;;;;;;5.15;2.65;;;;;;;7.34;70.50;97360.20;1682928;85;21176;-67
2021/05/07 00:04:07;;;;;;;3.95;2.87;;;;;;;7.36;70.98;97359.58;1711288;83;21219;-67
2021/05/07 00:06:36;;;;;;;4.67;2.45;;;;;;;7.40;70.37;97363.05;1725901;83;21609;-66
2021/05/07 00:09:06;;;;;;;2.50;1.90;;;;;;;7.46;68.89;97361.69;1709936;84;21647;-66
2021/05/07 00:11:34;;;;;;;3.92;2.22;;;;;;;7.48;67.98;97364.94;1725953;82;21134;-67
2021/05/07 00:14:03;;;;;;;5.72;2.67;;;;;;;7.53;68.23;97366.64;1709841;83;21575;-67
2021/05/07 00:16:30;;;;;;;2.37;1.50;;;;;;;7.54;68.25;97360.53;1726093;82;21587;-64
2021/05/07 00:18:59;;;;;;;7.97;2.40;;;;;;;7.54;67.80;97362.64;1709777;84;21246;-63
2021/05/07 00:21:28;;;;;;;5.45;2.55;;;;;;;7.56;68.78;97362.00;1723372;83;21202;-64
2021/05/07 00:23:56;;;;;;;4.72;2.25;;;;;;;7.59;68.89;97362.20;1708524;84;21714;-65
2021/05/07 00:26:24;;;;;;;4.00;2.80;;;;;;;7.62;69.72;97359.36;1724716;82;21163;-64
2021/05/07 00:28:53;;;;;;;4.80;2.85;;;;;;;7.64;69.02;97354.85;1687741;85;21207;-64
2021/05/07 00:31:21;;;;;;;7.37;3.98;;;;;;;7.67;70.07;97358.92;1701767;84;21214;-64
2021/05/07 00:33:49;;;;;;;5.87;3.65;;;;;;;7.70;70.42;97358.19;1725336;83;21166;-64
2021/05/07 00:36:17;;;;;;;6.22;2.90;;;;;;;7.71;70.57;97349.93;1709117;83;21660;-64
2021/05/07 00:38:45;;;;;;;6.70;3.77;;;;;;;7.72;70.01;97348.52;1725429;82;21170;-64
2021/05/07 00:41:13;;;;;;;7.22;4.55;;;;;;;7.73;70.62;97349.33;1708592;84;21242;-64
2021/05/07 00:43:41;;;;;;;5.85;3.52;;;;;;;7.73;70.16;97344.16;1725355;83;21624;-63
2021/05/07 00:46:09;;;;;;;8.05;3.62;;;;;;;7.73;69.89;97341.11;1725833;83;21139;-64
2021/05/07 00:48:39;;;;;;;5.58;3.08;;;;;;;7.76;69.67;97336.13;1725903;83;21163;-64
2021/05/07 00:51:07;;;;;;;8.53;2.95;;;;;;;7.78;69.93;97322.59;1726048;83;21597;-63
2021/05/07 00:53:55;;;;;;;6.28;3.67;;;;;;;7.80;68.56;97324.08;1725709;83;21604;-63
2021/05/07 00:56:23;;;;;;;4.47;2.42;;;;;;;7.84;69.55;97316.85;1636366;87;21628;-63
2021/05/07 00:58:53;;;;;;;7.00;2.15;;;;;;;7.85;67.76;97315.43;1633180;88;21317;-63
2021/05/07 01:01:21;;;;;;;6.00;2.50;;;;;;;7.86;69.90;97329.17;1666297;85;21200;-67
2021/05/07 01:03:50;;;;;;;5.50;2.52;;;;;;;7.85;69.88;97318.02;1666269;85;21640;-64
2021/05/07 01:06:18;;;;;;;8.93;3.02;;;;;;;7.88;69.89;97328.06;1666225;85;21208;-63
2021/05/07 01:08:46;;;;;;;6.00;2.80;;;;;;;7.89;69.86;97316.78;1665937;86;21247;-65
2021/05/07 01:11:14;;;;;;;4.10;2.33;;;;;;;7.94;70.12;97317.14;1665937;85;21652;-64
2021/05/07 01:13:42;;;;;;;5.33;2.75;;;;;;;7.97;69.67;97318.17;1666225;85;21644;-64
2021/05/07 01:16:13;;;;;;;3.25;1.98;;;;;;;8.00;69.85;97319.18;1666314;86;21195;-64
2021/05/07 01:18:40;;;;;;;6.30;2.47;;;;;;;8.04;68.88;97314.06;1666004;86;21230;-65
2021/05/07 01:21:09;;;;;;;6.05;2.60;;;;;;;8.04;68.79;97316.64;1665652;86;21665;-64
2021/05/07 01:23:38;;;;;;;4.33;2.37;;;;;;;8.06;68.71;97309.55;1668531;86;21203;-64
2021/05/07 01:26:06;;;;;;;4.72;2.20;;;;;;;8.08;68.50;97306.36;1665599;85;21219;-64
2021/05/07 01:28:35;;;;;;;5.05;2.50;;;;;;;8.11;68.58;97298.78;1665669;86;21188;-64
2021/05/07 01:31:03;;;;;;;6.80;1.98;;;;;;;8.16;67.99;97298.36;1668928;86;21730;-64
2021/05/07 01:33:34;;;;;;;3.55;2.30;;;;;;;8.23;67.27;97293.75;1665665;86;21263;-64
2021/05/07 01:36:06;;;;;;;4.28;2.33;;;;;;;8.30;67.42;97287.55;1666044;86;21196;-64
2021/05/07 01:38:34;;;;;;;3.12;2.37;;;;;;;8.34;68.06;97271.59;1665846;86;21239;-65
2021/05/07 01:41:04;;;;;;;3.67;2.10;;;;;;;8.39;67.28;97276.34;1669434;86;21632;-62
2021/05/07 01:43:34;;;;;;;8.00;2.70;;;;;;;8.43;67.69;97277.67;1666070;85;21163;-64
2021/05/07 01:46:04;;;;;;;3.47;2.33;;;;;;;8.48;66.61;97280.65;1666275;86;21227;-65
2021/05/07 01:48:32;;;;;;;2.92;2.12;;;;;;;8.53;66.84;97270.17;1666080;86;21196;-64
2021/05/07 01:53:46;;;;;;;4.83;2.40;;;;;;;8.57;67.65;97260.34;1663733;85;21245;-65
2021/05/07 01:56:13;;;;;;;4.35;2.62;;;;;;;8.58;67.48;97260.20;1663959;86;21178;-65
2021/05/07 01:58:43;;;;;;;3.65;2.65;;;;;;;8.59;68.29;97257.14;1663393;85;21210;-64
2021/05/07 02:01:12;;;;;;;4.33;3.05;;;;;;;8.58;68.09;97261.98;1663929;86;21316;-64
2021/05/07 02:03:40;;;;;;;5.37;2.72;;;;;;;8.56;68.41;97257.41;1663886;86;21331;-65
2021/05/07 02:06:11;;;;;;;3.65;2.55;;;;;;;8.56;67.86;97253.53;1664132;85;21316;-64
2021/05/07 02:08:41;;;;;;;3.42;2.00;;;;;;;8.56;68.08;97259.52;1663654;85;21178;-62
2021/05/07 02:11:09;;;;;;;4.42;2.10;;;;;;;8.59;67.87;97261.02;1664076;86;21198;-63
2021/05/07 02:13:37;;;;;;;6.22;1.95;;;;;;;8.57;67.38;97257.28;1663633;86;21186;-65
2021/05/07 02:16:05;;;;;;;3.58;2.15;;;;;;;8.56;67.12;97248.36;1663567;86;21159;-63
2021/05/07 02:18:34;;;;;;;5.12;2.55;;;;;;;8.57;67.37;97241.75;1663727;86;21222;-64
2021/05/07 02:21:04;;;;;;;8.05;2.35;;;;;;;8.61;67.27;97235.80;1663352;86;21610;-62
2021/05/07 02:23:34;;;;;;;2.47;1.75;;;;;;;8.65;67.39;97245.37;1664189;86;21238;-63
2021/05/07 02:26:02;;;;;;;4.97;2.25;;;;;;;8.64;67.24;97242.47;1663876;85;21195;-63
2021/05/07 02:28:32;;;;;;;3.80;1.87;;;;;;;8.64;66.65;97247.65;1655653;85;21169;-62
2021/05/07 02:31:00;;;;;;;7.80;2.52;;;;;;;8.63;66.50;97253.30;1664139;86;21312;-63
2021/05/07 02:33:29;;;;;;;2.80;2.27;;;;;;;8.62;66.34;97260.72;1663986;86;21631;-63
2021/05/07 02:35:57;;;;;;;3.98;2.10;;;;;;;8.65;66.16;97259.60;1664055;86;21792;-62
2021/05/07 02:38:26;;;;;;;3.47;2.33;;;;;;;8.66;66.68;97257.36;1664178;85;21627;-63
2021/05/07 02:40:55;;;;;;;8.18;2.55;;;;;;;8.66;66.35;97248.30;1664046;85;21195;-63
2021/05/07 02:43:23;;;;;;;4.55;2.60;;;;;;;8.67;65.80;97246.87;1664205;86;21221;-63
2021/05/07 02:45:51;;;;;;;3.85;2.50;;;;;;;8.64;66.00;97243.77;1664187;86;21560;-63
2021/05/07 02:48:20;;;;;;;4.60;2.50;;;;;;;8.66;65.80;97241.35;1663783;86;21226;-63
2021/05/07 02:50:49;;;;;;;3.83;2.40;;;;;;;8.70;65.59;97247.86;1663957;86;21210;-64
2021/05/07 02:53:17;;;;;;;4.22;1.87;;;;;;;8.74;64.90;97248.38;1661682;85;21193;-66
2021/05/07 02:55:46;;;;;;;3.47;2.45;;;;;;;8.78;65.35;97243.23;1660880;86;21594;-65
2021/05/07 02:58:14;;;;;;;8.73;2.42;;;;;;;8.78;65.29;97245.34;1661073;86;21657;-65
2021/05/07 03:00:42;;;;;;;4.00;2.00;;;;;;;8.80;65.17;97246.47;1661305;86;21177;-66
2021/05/07 03:03:10;;;;;;;4.87;2.45;;;;;;;8.83;64.80;97248.28;1661231;86;22146;-67
2021/05/07 03:05:38;;;;;;;4.20;2.12;;;;;;;8.85;64.90;97248.95;1661353;86;21534;-68
2021/05/07 03:08:06;;;;;;;5.20;2.27;;;;;;;8.82;65.71;97249.27;1661268;86;21562;-67
2021/05/07 03:10:34;;;;;;;3.70;1.57;;;;;;;8.82;65.62;97257.51;1661167;86;21650;-66
2021/05/07 03:13:03;;;;;;;4.53;2.40;;;;;;;8.87;64.64;97254.00;1661031;86;21129;-68
2021/05/07 03:15:32;;;;;;;2.90;1.90;;;;;;;8.90;63.22;97256.28;1661014;86;21169;-69
2021/05/07 03:17:59;;;;;;;6.03;2.35;;;;;;;8.86;63.39;97267.42;1660787;86;21156;-66
2021/05/07 03:20:27;;;;;;;5.35;2.25;;;;;;;8.90;64.34;97267.46;1625702;87;21264;-68
2021/05/07 03:22:56;;;;;;;4.83;2.15;;;;;;;8.94;64.46;97268.79;1655260;87;21180;-68
2021/05/07 03:25:24;;;;;;;2.25;1.50;;;;;;;8.97;64.49;97276.25;1655368;86;21184;-66
2021/05/07 03:27:51;;;;;;;4.47;1.95;;;;;;;8.95;63.52;97266.51;1655613;86;21712;-62
2021/05/07 03:30:21;;;;;;;3.62;1.80;;;;;;;8.94;63.07;97271.38;1655351;87;21169;-63
2021/05/07 03:32:49;;;;;;;2.30;1.60;;;;;;;9.01;62.70;97269.00;1655422;86;21626;-63
2021/05/07 03:35:17;;;;;;;4.25;2.27;;;;;;;9.02;63.23;97276.62;1655299;86;21177;-63
2021/05/07 03:37:46;;;;;;;3.37;1.57;;;;;;;9.04;63.10;97272.09;1655429;86;21701;-63
2021/05/07 03:40:19;;;;;;;3.70;1.90;;;;;;;9.06;62.77;97263.69;1655357;87;21201;-63
2021/05/07 03:42:48;;;;;;;6.47;2.37;;;;;;;9.14;62.88;97266.03;1655412;86;21668;-64
2021/05/07 03:45:17;;;;;;;24.12;9.23;;;;;;;9.20;64.27;97264.12;1655386;87;21244;-66
2021/05/07 03:47:46;;;;;;;10.45;5.95;;;;;;;9.21;65.87;97262.69;1655172;87;21157;-64
2021/05/07 03:50:14;;;;;;;4.95;3.17;;;;;;;9.21;65.61;97261.86;1655458;87;21216;-65
2021/05/07 03:52:43;;;;;;;12.35;5.72;;;;;;;9.13;66.83;97257.44;1658499;86;21645;-64
2021/05/07 03:55:13;;;;;;;8.70;3.40;;;;;;;9.17;65.96;97260.06;1671156;86;21382;-65
2021/05/07 03:57:42;;;;;;;4.92;2.72;;;;;;;9.16;65.94;97264.91;1671579;86;21620;-63
2021/05/07 04:00:12;;;;;;;2.98;1.55;;;;;;;9.16;66.30;97257.13;1671351;86;21265;-63
2021/05/07 04:03:02;;;;;;;2.55;1.55;;;;;;;9.25;65.32;97266.59;1671474;86;21724;-65
2021/05/07 04:05:30;;;;;;;4.55;2.27;;;;;;;9.28;67.41;97264.17;1676509;84;21195;-67
2021/05/07 04:10:56;;;;;;;3.85;1.92;;;;;;;9.39;65.49;97266.52;1676731;85;21617;-67
2021/05/07 04:13:34;;;;;;;2.80;1.50;;;;;;;9.51;65.03;97262.71;1676674;85;21223;-67
2021/05/07 04:16:00;;;;;;;1.98;1.27;;;;;;;9.60;64.83;97261.80;1676644;84;21168;-67
2021/05/07 04:18:28;;;;;;;2.60;1.52;;;;;;;9.69;64.87;97261.37;1695256;84;21683;-64
2021/05/07 04:20:56;;;;;;;2.02;1.35;;;;;;;9.75;64.54;97260.26;1702806;84;21759;-62
2021/05/07 04:23:24;;;;;;;4.60;1.85;;;;;;;9.85;64.15;97259.65;1703267;84;21242;-63
2021/05/07 04:25:53;;;;;;;2.65;1.37;;;;;;;9.96;64.24;97263.26;1703470;83;21727;-66
2021/05/07 04:28:21;;;;;;;1.72;1.30;;;;;;;10.07;63.55;97266.08;1703396;84;21223;-63
2021/05/07 04:30:52;;;;;;;3.15;1.85;;;;;;;10.18;63.34;97265.83;1677567;83;21195;-62
2021/05/07 04:33:20;;;;;;;5.92;1.87;;;;;;;10.27;62.72;97263.56;1702639;83;21187;-63
2021/05/07 04:35:49;;;;;;;2.42;1.60;;;;;;;10.37;62.65;97259.55;1703317;84;21151;-68
2021/05/07 04:38:17;;;;;;;5.92;1.67;;;;;;;10.31;63.44;97265.39;1703462;83;21170;-68
2021/05/07 04:40:45;;;;;;;3.02;1.22;;;;;;;10.38;61.99;97254.22;1703525;84;21564;-61
2021/05/07 04:43:13;;;;;;;4.12;1.80;;;;;;;10.39;61.55;97252.41;1703457;84;21167;-62
2021/05/07 04:45:41;;;;;;;10.03;2.42;;;;;;;10.45;61.90;97256.98;1703693;84;21249;-62
2021/05/07 04:48:13;;;;;;;12.73;2.17;;;;;;;10.42;62.00;97254.70;1703597;83;21603;-62
2021/05/07 04:50:43;;;;;;;14.85;4.53;;;;;;;10.51;61.18;97254.22;1703555;84;21179;-61
2021/05/07 04:53:11;;;;;;;5.42;2.50;;;;;;;10.26;61.86;97252.88;1703417;84;21214;-62
2021/05/07 04:55:40;;;;;;;2.85;1.50;;;;;;;10.40;60.89;97255.34;1703508;84;21733;-61
2021/05/07 04:58:10;;;;;;;5.42;2.27;;;;;;;10.51;61.42;97257.63;1703456;83;21175;-62
2021/05/07 05:00:38;;;;;;;3.98;1.98;;;;;;;10.40;61.63;97248.84;1703616;83;21376;-61
2021/05/07 05:03:06;;;;;;;5.08;1.72;;;;;;;10.48;61.53;97247.09;1703570;83;21352;-61
2021/05/07 05:05:34;;;;;;;2.42;1.70;;;;;;;10.63;61.41;97247.75;1698985;84;21239;-60
2021/05/07 05:08:04;;;;;;;8.55;2.37;;;;;;;10.83;61.40;97247.30;1698846;84;21168;-62
2021/05/07 05:10:32;;;;;;;6.03;3.10;;;;;;;10.94;61.13;97245.67;1687372;84;21586;-61
2021/05/07 05:13:00;;;;;;;5.30;1.98;;;;;;;10.81;61.33;97241.95;1681409;84;21200;-61
2021/05/07 05:15:29;;;;;;;4.15;2.20;;;;;;;10.96;60.57;97232.53;1681335;84;21554;-61
2021/05/07 05:17:57;;;;;;;2.72;1.65;;;;;;;10.82;61.06;97239.66;1681405;84;21184;-62
2021/05/07 05:20:25;;;;;;;8.43;3.35;;;;;;;11.04;60.81;97237.73;1681506;84;21184;-62
2021/05/07 05:23:05;;;;;;;3.35;2.08;;;;;;;11.20;60.54;97250.72;1676196;85;21596;-62
2021/05/07 05:25:34;;;;;;;7.42;2.02;;;;;;;11.40;59.94;97246.77;1676489;85;21606;-61
2021/05/07 05:28:02;;;;;;;2.45;1.95;;;;;;;11.57;59.35;97248.05;1676291;85;21209;-64
2021/05/07 05:30:30;;;;;;;5.75;2.30;;;;;;;11.70;58.66;97241.36;1676385;85;21186;-64
2021/05/07 05:32:58;;;;;;;6.30;3.05;;;;;;;11.72;57.41;97236.01;1676371;85;21138;-64
2021/05/07 05:35:26;;;;;;;6.42;2.67;;;;;;;11.75;57.67;97232.58;1676183;85;21170;-64
2021/05/07 05:37:55;;;;;;;3.45;1.82;;;;;;;11.86;57.71;97233.55;1676380;85;21189;-65
2021/05/07 05:40:23;;;;;;;5.62;2.60;;;;;;;11.84;57.95;97226.38;1676176;85;21189;-64
2021/05/07 05:42:51;;;;;;;3.62;2.08;;;;;;;11.76;58.13;97218.61;1676247;85;21138;-63
2021/05/07 05:45:19;;;;;;;3.33;2.33;;;;;;;11.69;58.42;97210.31;1676332;85;21166;-64
2021/05/07 05:47:47;;;;;;;5.50;2.70;;;;;;;11.64;58.39;97213.41;1676165;85;21154;-64
2021/05/07 05:50:15;;;;;;;4.70;1.55;;;;;;;11.68;58.52;97209.98;1676313;85;21174;-64
2021/05/07 05:52:43;;;;;;;3.67;1.47;;;;;;;11.80;58.34;97212.58;1676167;85;21190;-66
2021/05/07 05:55:11;;;;;;;3.37;1.87;;;;;;;11.80;58.30;97209.97;1676277;85;21171;-66
2021/05/07 05:57:39;;;;;;;3.72;2.08;;;;;;;11.84;58.55;97209.95;1676420;85;21174;-66
2021/05/07 06:00:30;;;;;;;7.10;3.37;;;;;;;11.86;58.65;97210.62;1676360;85;21525;-66
2021/05/07 06:02:58;;;;;;;6.92;2.30;;;;;;;11.96;58.26;97204.70;1619461;88;21503;-66
2021/05/07 06:05:26;;;;;;;3.08;2.10;;;;;;;12.09;58.54;97206.28;1590911;90;21743;-64
2021/05/07 06:07:55;;;;;;;4.62;2.50;;;;;;;12.24;58.23;97208.97;1591073;89;21202;-64
2021/05/07 06:10:25;;;;;;;4.05;1.95;;;;;;;12.38;58.05;97206.92;1591118;90;21630;-64
2021/05/07 06:12:53;;;;;;;3.85;2.37;;;;;;;12.50;57.92;97208.15;1591371;89;21218;-64
2021/05/07 06:15:21;;;;;;;5.10;2.72;;;;;;;12.73;57.42;97208.96;1591313;89;21596;-64
2021/05/07 06:17:49;;;;;;;9.38;3.35;;;;;;;12.74;57.51;97210.59;1591339;89;21234;-64
2021/05/07 06:20:18;;;;;;;2.85;1.72;;;;;;;12.80;57.66;97204.67;1591213;90;21206;-64
2021/05/07 06:22:48;;;;;;;4.05;1.60;;;;;;;12.87;57.40;97207.41;1591323;90;21216;-64
2021/05/07 06:25:38;;;;;;;3.45;1.70;;;;;;;12.99;57.09;97206.00;1591103;89;21206;-64
2021/05/07 06:28:06;;;;;;;3.25;1.70;;;;;;;13.08;56.88;97210.14;1658247;86;21208;-63
2021/05/07 06:30:34;;;;;;;2.50;1.37;;;;;;;13.01;56.76;97205.81;1658334;86;21271;-65
2021/05/07 06:33:01;;;;;;;3.12;1.62;;;;;;;13.08;56.92;97204.93;1658348;86;21199;-64
2021/05/07 06:35:30;;;;;;;4.90;1.52;;;;;;;13.17;57.15;97205.22;1658134;86;21179;-64
2021/05/07 06:37:59;;;;;;;1.85;1.22;;;;;;;13.25;57.24;97206.94;1658439;85;21192;-64
2021/05/07 06:40:27;;;;;;;5.58;2.72;;;;;;;13.31;56.98;97203.60;1641700;86;21215;-64
2021/05/07 06:43:00;;;;;;;5.53;2.10;;;;;;;13.41;56.66;97204.17;1701671;82;21167;-64
2021/05/07 06:45:28;;;;;;;5.33;1.35;;;;;;;13.44;56.52;97199.90;1703586;84;21219;-64
2021/05/07 06:47:57;;;;;;;3.15;1.57;;;;;;;13.66;56.12;97202.09;1703575;83;21285;-65
2021/05/07 06:50:25;;;;;;;4.10;1.25;;;;;;;13.71;55.88;97198.45;1703594;84;21281;-66
2021/05/07 06:52:53;;;;;;;2.27;1.40;;;;;;;13.86;55.47;97190.61;1703465;84;21595;-67
2021/05/07 06:55:20;;;;;;;3.83;2.30;;;;;;;13.70;55.77;97185.09;1723080;83;21171;-67
2021/05/07 06:57:50;;;;;;;1.95;1.65;;;;;;;13.74;55.88;97179.34;1723309;83;21531;-66
2021/05/07 07:00:19;;;;;;;3.20;2.10;;;;;;;13.74;56.26;97178.03;1723200;83;21134;-64
2021/05/07 07:02:57;;;;;;;2.95;2.40;;;;;;;13.79;56.21;97165.26;1722685;79;21555;-64
2021/05/07 07:05:27;;;;;;;8.40;1.90;;;;;;;13.88;56.01;97165.16;1694465;83;21137;-64
2021/05/07 07:07:55;;;;;;;3.35;1.70;;;;;;;13.82;56.46;97173.70;1711194;83;21169;-64
2021/05/07 07:10:23;;;;;;;1.72;1.40;;;;;;;13.84;56.56;97170.42;1724619;82;21167;-64
2021/05/07 07:12:52;;;;;;;3.22;1.70;;;;;;;13.81;56.67;97163.78;1694663;83;21807;-64
2021/05/07 07:15:20;;;;;;;8.13;3.15;;;;;;;14.01;56.14;97154.36;1728238;81;21132;-64
2021/05/07 07:17:48;;;;;;;6.20;2.15;;;;;;;13.96;56.75;97157.23;1694880;85;21212;-64
2021/05/07 07:20:16;;;;;;;4.50;1.95;;;;;;;14.10;56.59;97151.97;1722389;81;21289;-64
2021/05/07 07:22:46;;;;;;;4.85;1.72;;;;;;;14.13;56.63;97150.78;1722595;82;21132;-64
2021/05/07 07:25:14;;;;;;;2.30;0.90;;;;;;;14.11;56.51;97140.53;1694848;83;21177;-64
2021/05/07 07:27:42;;;;;;;7.22;2.90;;;;;;;14.19;56.62;97137.81;1727485;81;21167;-64
2021/05/07 07:30:12;;;;;;;6.65;1.80;;;;;;;14.17;56.79;97130.64;1694800;84;21385;-63
2021/05/07 07:32:40;;;;;;;1.80;1.25;;;;;;;14.34;56.30;97127.31;1727334;81;21600;-64
2021/05/07 07:35:10;;;;;;;4.78;2.30;;;;;;;14.48;55.95;97135.59;1694999;85;21171;-64
2021/05/07 07:37:38;;;;;;;5.47;2.52;;;;;;;14.57;55.83;97120.11;1727661;81;21596;-64
2021/05/07 07:40:09;;;;;;;4.67;1.92;;;;;;;14.67;55.58;97123.20;1694882;83;21175;-64
2021/05/07 07:42:37;;;;;;;2.08;1.45;;;;;;;14.74;55.46;97127.20;1687509;83;21784;-64
2021/05/07 07:45:08;;;;;;;4.62;1.60;;;;;;;14.77;55.61;97124.70;1694570;85;21180;-64
2021/05/07 07:50:47;;;;;;;2.83;1.12;;;;;;;14.86;55.38;97123.58;1689534;80;21160;-64
2021/05/07 07:53:15;;;;;;;6.00;1.85;;;;;;;14.96;55.00;97119.63;1724038;82;21198;-64
2021/05/07 07:55:43;;;;;;;2.60;1.40;;;;;;;14.96;55.18;97117.50;1723836;82;21197;-64
2021/05/07 07:58:11;;;;;;;2.35;1.72;;;;;;;14.98;55.09;97128.06;1724761;82;21244;-65
2021/05/07 08:00:41;;;;;;;2.50;1.35;;;;;;;14.81;55.43;97124.62;1723252;83;21587;-67
2021/05/07 08:03:09;;;;;;;3.33;1.20;;;;;;;14.83;55.08;97125.23;1723875;82;21159;-67
2021/05/07 08:05:37;;;;;;;2.27;1.47;;;;;;;14.77;55.71;97128.62;1723949;82;21174;-67
2021/05/07 08:08:06;;;;;;;3.40;1.50;;;;;;;14.69;56.07;97126.45;1725704;81;21166;-67
2021/05/07 08:10:34;;;;;;;2.80;1.10;;;;;;;14.76;55.66;97127.80;1725263;82;21178;-67
2021/05/07 08:13:03;;;;;;;4.35;1.85;;;;;;;14.79;55.74;97132.65;1725567;81;21127;-67
2021/05/07 08:15:31;;;;;;;3.62;1.98;;;;;;;14.78;56.00;97138.09;1724376;81;21199;-67
2021/05/07 08:17:58;;;;;;;2.75;2.05;;;;;;;14.81;55.85;97141.63;1724321;81;21217;-67
2021/05/07 08:20:28;;;;;;;8.03;5.30;;;;;;;14.80;56.34;97136.08;1723897;82;21166;-67
2021/05/07 08:22:56;;;;;;;6.70;3.55;;;;;;;14.82;57.29;97139.32;1724869;82;21174;-67
2021/05/07 08:25:25;;;;;;;5.25;2.30;;;;;;;14.83;57.26;97137.00;1724064;82;21182;-67
2021/05/07 08:27:54;;;;;;;4.22;1.52;;;;;;;14.83;58.26;97144.84;1723074;81;21191;-67
2021/05/07 08:30:23;;;;;;;2.98;1.77;;;;;;;14.83;57.76;97144.84;1723144;81;21603;-66
2021/05/07 08:32:51;;;;;;;4.42;1.75;;;;;;;14.87;57.08;97149.50;1724270;82;21237;-67
2021/05/07 08:35:19;;;;;;;3.15;1.60;;;;;;;14.91;56.66;97144.70;1724353;82;21187;-67
2021/05/07 08:37:47;;;;;;;3.17;1.92;;;;;;;14.92;57.26;97141.10;1724167;81;21169;-67
2021/05/07 08:40:17;;;;;;;3.90;1.20;;;;;;;14.91;57.16;97141.59;1723922;82;21687;-67
2021/05/07 08:42:45;;;;;;;2.25;1.40;;;;;;;14.92;57.35;97142.41;1724073;82;21571;-67
2021/05/07 08:45:15;;;;;;;3.02;1.75;;;;;;;14.96;57.11;97138.41;1724470;81;21135;-67
2021/05/07 08:47:45;;;;;;;5.65;1.70;;;;;;;14.99;57.06;97138.84;1721015;82;21154;-67
2021/05/07 08:50:14;;;;;;;1.77;1.07;;;;;;;15.03;56.47;97140.08;1715886;82;21231;-67
2021/05/07 08:52:44;;;;;;;1.10;0.80;;;;;;;15.09;56.70;97143.75;1708250;83;21147;-68
2021/05/07 08:55:14;;;;;;;1.60;1.00;;;;;;;15.10;56.67;97141.42;1688364;84;21163;-67
2021/05/07 08:57:42;;;;;;;2.50;1.55;;;;;;;15.13;56.35;97139.76;1708327;84;21595;-67
2021/05/07 09:00:13;;;;;;;3.60;1.47;;;;;;;15.12;56.58;97140.25;1708127;83;21167;-67
2021/05/07 09:02:41;;;;;;;4.37;1.00;;;;;;;15.08;56.87;97140.33;1708425;84;21166;-67
2021/05/07 09:05:12;;;;;;;3.17;1.47;;;;;;;15.14;57.42;97134.32;1708157;84;21151;-67
2021/05/07 09:07:40;;;;;;;7.42;1.70;;;;;;;15.20;57.36;97131.45;1708077;84;21602;-67
2021/05/07 09:13:17;;;;;;;3.00;1.65;;;;;;;15.30;56.40;97127.17;1664168;86;21173;-67
2021/05/07 09:15:48;;;;;;;9.08;1.50;;;;;;;15.36;56.42;97127.73;1682768;84;21565;-66
2021/05/07 09:18:18;;;;;;;2.52;1.60;;;;;;;15.47;55.94;97133.72;1665354;86;21224;-67
2021/05/07 09:20:49;;;;;;;2.92;1.62;;;;;;;15.53;55.46;97127.23;1682623;84;21162;-63
2021/05/07 09:23:18;;;;;;;5.03;1.80;;;;;;;15.60;55.35;97122.83;1695410;83;21572;-64
2021/05/07 09:26:20;;;;;;;5.50;1.62;;;;;;;15.68;54.96;97115.84;1692620;84;21160;-67
2021/05/07 09:28:56;;;;;;;3.40;1.77;;;;;;;15.76;54.74;97116.98;1631313;86;21225;-67
2021/05/07 09:31:24;;;;;;;5.05;2.47;;;;;;;15.77;54.88;97114.16;1632571;88;21183;-67
2021/05/07 09:33:53;;;;;;;3.40;1.92;;;;;;;15.72;55.49;97117.07;1603758;88;21191;-67
2021/05/07 09:36:25;;;;;;;5.20;1.85;;;;;;;15.79;54.81;97108.73;1603564;89;21227;-67
2021/05/07 09:38:53;;;;;;;5.33;1.82;;;;;;;15.97;54.45;97108.98;1603302;89;21326;-67
2021/05/07 09:41:23;;;;;;;8.25;3.27;;;;;;;16.08;53.55;97117.08;1628698;88;21179;-67
2021/05/07 09:43:51;;;;;;;3.75;2.27;;;;;;;16.16;53.40;97113.47;1632258;88;21180;-66
2021/05/07 09:46:42;;;;;;;3.77;2.10;;;;;;;16.23;53.29;97111.67;1603694;88;21231;-67
2021/05/07 09:49:16;;;;;;;3.05;2.42;;;;;;;16.33;53.41;97106.06;1597075;88;21616;-67
2021/05/07 09:51:46;;;;;;;4.22;2.12;;;;;;;16.38;52.78;97098.41;1594187;89;21206;-68
2021/05/07 09:54:14;;;;;;;4.42;1.47;;;;;;;16.59;52.91;97103.48;1623217;88;21211;-67
2021/05/07 09:56:43;;;;;;;1.90;1.25;;;;;;;16.74;51.16;97103.28;1623542;87;21161;-68
2021/05/07 09:59:12;;;;;;;4.17;1.45;;;;;;;16.90;51.21;97099.75;1623301;87;21191;-69
2021/05/07 10:01:47;;;;;;;3.17;1.20;;;;;;;17.15;51.99;97097.31;1623425;88;21597;-67
2021/05/07 10:04:17;;;;;;;2.92;1.40;;;;;;;17.39;51.49;97098.47;1623520;87;21176;-68
2021/05/07 10:06:45;;;;;;;3.15;1.37;;;;;;;17.62;50.17;97091.45;1623662;87;21220;-67
2021/05/07 10:09:25;;;;;;;4.92;1.25;;;;;;;17.80;49.96;97088.44;1623471;88;21180;-64
2021/05/07 10:11:55;;;;;;;8.65;5.33;;;;;;;17.98;50.46;97084.61;1623526;87;21641;-64
2021/05/07 10:14:26;;;;;;;5.70;2.08;;;;;;;18.07;48.70;97081.73;1623401;87;21191;-64
2021/05/07 10:16:55;;;;;;;7.30;2.98;;;;;;;17.92;48.32;97074.95;1623121;87;21208;-64
2021/05/07 10:19:24;;;;;;;5.05;3.08;;;;;;;18.02;48.61;97075.80;1623221;87;21217;-65
2021/05/07 10:21:59;;;;;;;2.77;2.27;;;;;;;18.17;48.65;97072.36;1622552;87;21638;-64
2021/05/07 10:24:32;;;;;;;5.08;1.70;;;;;;;18.35;48.17;97076.91;1623392;87;21574;-64
2021/05/07 10:27:00;;;;;;;4.58;1.37;;;;;;;18.69;47.94;97070.41;1623210;87;21186;-68
2021/05/07 10:29:29;;;;;;;5.22;1.52;;;;;;;18.79;45.83;97064.17;1623378;87;22273;-68
2021/05/07 10:31:59;;;;;;;2.77;1.27;;;;;;;18.74;46.14;97058.74;1623363;87;21638;-68
2021/05/07 10:34:28;;;;;;;1.72;0.88;;;;;;;18.69;44.63;97059.89;1623579;87;21855;-68
2021/05/07 10:37:11;;;;;;;0.98;0.80;;;;;;;18.70;44.71;97058.37;1623711;87;21188;-68
2021/05/07 10:39:52;;;;;;;1.60;0.98;;;;;;;18.47;45.16;97054.98;1623846;87;21200;-68
2021/05/07 10:42:20;;;;;;;1.35;1.07;;;;;;;18.43;45.00;97052.49;1623424;87;21164;-67
2021/05/07 10:44:50;;;;;;;0.90;0.70;;;;;;;18.40;45.46;97052.12;1623264;88;21241;-68
2021/05/07 10:47:18;;;;;;;0.98;0.80;;;;;;;18.35;45.74;97043.55;1632868;86;21615;-68
2021/05/07 10:49:48;;;;;;;4.58;0.90;;;;;;;18.25;45.60;97045.83;1672227;84;21640;-68
2021/05/07 10:52:16;;;;;;;1.10;0.82;;;;;;;18.24;45.95;97038.18;1680291;84;21263;-68
2021/05/07 10:54:50;;;;;;;1.15;0.80;;;;;;;18.07;46.13;97042.33;1700575;84;21305;-69
2021/05/07 10:57:32;;;;;;;1.20;0.78;;;;;;;18.06;46.15;97042.02;1700496;84;21360;-68
2021/05/07 11:00:12;;;;;;;0.85;0.78;;;;;;;17.84;46.64;97031.86;1700285;84;21159;-67
2021/05/07 11:03:05;;;;;;;2.05;1.10;;;;;;;17.86;46.68;97027.19;1700413;84;21377;-68
2021/05/07 11:05:46;;;;;;;1.05;0.75;;;;;;;17.96;47.15;97032.80;1652843;85;21619;-65
2021/05/07 11:08:15;;;;;;;3.10;1.30;;;;;;;18.08;46.90;97030.80;1652711;85;21606;-67
2021/05/07 11:10:43;;;;;;;13.15;5.25;;;;;;;18.14;46.79;97036.52;1652701;85;21209;-67
2021/05/07 11:13:11;;;;;;;20.90;11.75;;;;;;;18.10;45.91;97032.19;1652550;85;21873;-67
2021/05/07 11:15:39;;;;;;;19.52;10.38;;;;;;;18.17;45.65;97029.55;1607409;87;21236;-67
2021/05/07 11:18:10;;;;;;;21.23;8.95;;;;;;;18.21;46.12;97030.73;1655678;85;21172;-68
2021/05/07 11:20:42;;;;;;;13.22;4.37;;;;;;;18.23;45.83;97028.67;1655550;85;21230;-69
2021/05/07 11:23:12;;;;;;;2.17;1.15;;;;;;;18.25;44.96;97039.77;1652601;86;21209;-69
2021/05/07 11:25:41;;;;;;;1.55;0.88;;;;;;;18.20;45.45;97029.11;1652753;85;21230;-69
2021/05/07 11:28:19;;;;;;;1.45;0.88;;;;;;;18.24;45.35;97017.97;1652959;85;21189;-67
2021/05/07 11:30:56;;;;;;;0.85;0.78;;;;;;;18.22;45.60;97025.24;1652875;85;21576;-67
2021/05/07 11:33:29;;;;;;;3.20;1.10;;;;;;;18.20;45.34;97019.41;1652958;85;21156;-70
2021/05/07 11:36:10;;;;;;;1.10;1.00;;;;;;;18.07;45.72;97026.06;1652640;85;21315;-69
2021/05/07 11:38:40;;;;;;;1.20;0.80;;;;;;;18.09;46.14;97031.92;1652890;85;21198;-71
2021/05/07 11:41:24;;;;;;;1.72;1.42;;;;;;;18.04;45.18;97029.11;1652656;85;21146;-69
2021/05/07 11:43:55;;;;;;;1.42;1.20;;;;;;;17.93;45.22;97024.54;1652730;85;21178;-70
2021/05/07 11:46:23;;;;;;;1.77;0.95;;;;;;;17.95;46.21;97031.18;1652529;85;21749;-66
2021/05/07 11:48:52;;;;;;;23.62;12.70;;;;;;;17.97;46.23;97034.92;1652769;85;21245;-71
2021/05/07 11:51:22;;;;;;;7.78;4.08;;;;;;;17.96;45.88;97039.88;1620660;87;21609;-65
2021/05/07 11:53:57;;;;;;;1.32;1.17;;;;;;;17.89;46.32;97037.80;1620576;87;21199;-64
2021/05/07 11:56:27;;;;;;;1.72;1.30;;;;;;;17.85;46.48;97032.16;1651847;85;21348;-65
2021/05/07 11:58:55;;;;;;;1.72;1.17;;;;;;;17.79;47.09;97029.55;1652566;85;21202;-69
2021/05/07 12:01:28;;;;;;;1.70;1.00;;;;;;;17.83;46.78;97028.12;1652517;85;21618;-64